EDT,Max TemperatureF,Mean TemperatureF,Min TemperatureF,Max Dew PointF,MeanDew PointF,Min DewpointF,Max Humidity, Mean Humidity, Min Humidity, Max Sea Level PressureIn, Mean Sea Level PressureIn, Min Sea Level PressureIn, Max VisibilityMiles, Mean VisibilityMiles, Min VisibilityMiles, Max Wind SpeedMPH, Mean Wind SpeedMPH, Max Gust SpeedMPH,PrecipitationIn, CloudCover, Events, WindDirDegrees
2013-3-1,33,32,30,34,31,28,100,96,87,29.61,29.56,29.50,10,5,1,16,9,21,0.02,8,,2
2013-3-2,37,34,30,36,33,30,100,93,81,29.59,29.57,29.55,10,9,2,10,7,17,0.04,8,,341
2013-3-3,44,38,33,37,35,34,100,92,66,29.57,29.52,29.45,10,10,5,8,3,16,0.00,8,,331
2013-3-4,37,34,32,36,33,30,100,93,87,29.63,29.47,29.41,10,6,1,12,6,20,0.09,8,,324
2013-3-5,42,38,33,37,35,32,100,90,76,30.13,29.91,29.63,10,10,9,17,11,24,0.01,8,,17
2013-3-6,37,34,32,34,29,25,100,79,70,30.28,30.24,30.13,10,10,5,20,13,28,0.00,8,,48
2013-3-7,37,34,32,27,25,25,80,70,60,30.24,30.16,30.08,10,10,10,25,16,34,0.00,7,,35
2013-3-8,46,38,30,27,24,21,86,64,37,30.20,30.10,30.04,10,10,10,25,20,38,0.00,2,,20
2013-3-9,41,34,28,27,25,25,93,75,53,30.39,30.28,30.19,10,10,10,20,12,24,0.03,1,,15
2013-3-10,35,32,28,30,27,25,100,84,65,30.43,30.38,30.31,10,10,5,10,6,,0.00,5,,127
2013-3-11,42,38,33,39,36,30,100,90,76,30.33,30.24,30.18,10,10,9,18,10,24,0.00,8,,196
2013-3-12,51,46,41,48,44,39,100,92,76,30.19,30.08,29.85,10,10,6,26,12,38,0.28,8,,171
2013-3-13,50,42,33,50,43,30,100,94,81,29.83,29.68,29.62,10,8,1,31,15,45,0.89,7,,258
2013-3-14,42,34,26,32,27,19,93,77,49,29.68,29.64,29.59,10,9,2,18,5,22,0.00,4,,261
2013-3-15,35,27,19,19,13,5,86,60,30,29.73,29.65,29.58,10,10,6,16,9,23,0.00,4,,309
2013-3-16,35,28,21,19,13,7,80,54,32,29.87,29.74,29.60,10,10,10,12,5,23,0.00,4,,320
2013-3-17,30,24,15,12,5,-4,74,47,26,30.27,30.00,29.88,10,10,10,17,7,29,0.00,1,,307
2013-3-18,32,22,12,18,1,-4,69,41,23,30.41,30.34,30.28,10,10,10,13,5,20,0.00,0,,293
2013-3-19,28,26,24,27,21,7,100,83,43,30.30,30.04,29.63,10,4,0,18,8,29,0.18,7,,62
2013-3-20,33,26,19,28,22,18,100,82,60,29.69,29.59,29.53,10,8,0,18,11,30,0.02,7,,289
2013-3-21,35,30,26,30,23,18,100,73,48,29.76,29.69,29.58,10,10,10,13,6,16,0.00,3,,205
2013-3-22,39,31,23,28,19,12,100,63,33,29.59,29.56,29.53,10,10,10,13,6,20,0.00,2,,319
2013-3-23,39,32,26,27,21,18,80,63,42,29.57,29.48,29.39,10,10,10,16,8,25,0.00,4,,270
2013-3-24,44,38,32,28,25,21,87,61,42,29.75,29.67,29.54,10,10,10,13,7,20,0.00,4,,319
2013-3-25,42,34,26,32,28,25,100,77,53,29.75,29.69,29.58,10,10,10,16,4,25,0.00,5,,38
2013-3-26,46,37,28,30,26,21,86,65,37,29.67,29.57,29.51,10,10,10,18,11,26,0.04,3,,347
2013-3-27,41,36,32,39,35,28,100,93,81,29.83,29.71,29.65,10,10,5,14,6,18,0.05,7,,332
2013-3-28,50,42,33,36,33,28,100,78,46,29.92,29.88,29.83,10,10,9,10,5,,0.00,7,,352
2013-3-29,53,42,32,37,33,28,93,69,41,29.96,29.92,29.89,10,10,10,9,3,,0.00,6,,307
2013-3-30,51,40,28,34,26,12,100,61,21,30.06,29.99,29.95,10,10,10,10,3,18,0.00,1,,328
2013-3-31,48,36,24,37,24,18,93,63,30,30.12,30.06,29.90,10,10,10,17,3,18,0.00,0,,177